This is the latest recevied weather packets stored in our database for station/object W4HIX-2. If no packets are shown the sender has not sent any weather packets the latest 10 day(s).
| Time | Temp. | Humidity | Pressure | Rain* | Wind** | Luminosity | Snow |
|---|---|---|---|---|---|---|---|
| 1777590016 | 25.56° C | 84% | 1011 hPa | 0 mm | - | - | - |
| 1777582215 | 26.67° C | 82% | 1011.5 hPa | 0 mm | - | - | - |
| 1777580415 | 27.22° C | 79% | 1011.6 hPa | 0 mm | - | - | - |
| 1777575015 | 26.67° C | 79% | 1012.2 hPa | 0 mm | - | - | - |
| 1777563015 | 26.11° C | 83% | 1013.2 hPa | 0 mm | - | - | - |
| 1777562415 | 26.11° C | 81% | 1013.2 hPa | 0 mm | - | - | - |
| 1777558217 | 25° C | 85% | 1012.8 hPa | 0 mm | - | - | - |
| 1777557017 | 25° C | 87% | 1013.2 hPa | 0 mm | - | - | - |
| 1777556417 | 25° C | 86% | 1013.2 hPa | 0 mm | - | - | - |
| 1777554617 | 25° C | 87% | 1013.4 hPa | 0 mm | - | - | - |
| 1777549817 | 24.44° C | 89% | 1012.7 hPa | 0 mm | - | - | - |
| 1777546217 | 23.89° C | 88% | 1011.7 hPa | 0 mm | - | - | - |
| 1777545017 | 23.89° C | 88% | 1012.1 hPa | 0 mm | - | - | - |
| 1777542016 | 23.89° C | 87% | 1011.9 hPa | 0 mm | - | - | - |
| 1777534216 | 23.89° C | 89% | 1012.3 hPa | 0 mm | - | - | - |
| 1777533616 | 23.89° C | 90% | 1012.4 hPa | 0 mm | - | - | - |
| 1777531216 | 23.89° C | 90% | 1012.4 hPa | 0 mm | - | - | - |
| 1777518616 | 24.44° C | 91% | 1014.1 hPa | 0 mm | - | - | - |
| 1777516836 | 24.44° C | 91% | 1013.7 hPa | 0 mm | - | - | - |
| 1777513816 | 24.44° C | 91% | 1013.6 hPa | 0 mm | - | - | - |
| 1777507816 | 24.44° C | 89% | 1012.5 hPa | 0 mm | - | - | - |
| 1777507216 | 25° C | 89% | 1012.5 hPa | 0 mm | - | - | - |
| 1777506016 | 25° C | 88% | 1012.5 hPa | 0 mm | - | - | - |
| 1777505416 | 25° C | 88% | 1012.5 hPa | 0 mm | - | - | - |
| 1777501215 | 25.56° C | 86% | 1012.4 hPa | 0 mm | - | - | - |
* Rain latest hour (hover to see other rain measurements)
** Current wind speed in m/s (hover to see current wind gust speed)